VMMC Airport Information

Runway Information
Runway 16 Length 10544 ft width 148 ft
Elevation 20 ft Threshold 1195 ft Heading 160
Runway 34 Length 10544 ft Width 148 ft
Elevation 20 ft Threshold 1215 ft Heading 340
Airport Frequencies
Type APP Name HONG KONG Frequency 126.3 MHZ
Type ATIS Name ATIS Frequency 126.4 MHZ
Type GND Name GND Frequency 121.725 MHZ
Type TWR Name TWR Frequency 118 MHZ
Airport Navaids
Type VOR-DME Name Macau Frequency 116400 KHZ
Type VOR Name Jiuzhou Frequency 117200 KHZ
Airport Weather Information & NOTAM
ADDS - METARS form results

(2052 UTC 13 June 2021)
Data provider http://aviationweather.gov/metar/data/
 
METAR text: VMMC 132030Z 16013KT 9999 FEW011 SCT022 28/26 Q1005 NOSIG
Conditions at: VMMC (MACAO/MACAU , MO) observed 2030 UTC 13 June 2021
Temperature: 28.0°C (82°F)
Dewpoint: 26.0°C (79°F) [RH = 89%]
Pressure (altimeter): 29.68 inches Hg (1005.0 mb)
Winds: from the SSE (160 degrees) at 15 MPH (13 knots; 6.7 m/s)
Visibility: 6 or more miles (10+ km)
Ceiling: at least 12,000 feet AGL
Clouds: few clouds at 1100 feet AGL
scattered clouds at 2200 feet AGL
Weather: no significant weather observed at this time

METAR text: VMMC 132000Z 16011KT 9999 FEW011 SCT022 28/26 Q1006 NOSIG
Conditions at: VMMC (MACAO/MACAU , MO) observed 2000 UTC 13 June 2021
Temperature: 28.0°C (82°F)
Dewpoint: 26.0°C (79°F) [RH = 89%]
Pressure (altimeter): 29.70 inches Hg (1006.0 mb)
Winds: from the SSE (160 degrees) at 13 MPH (11 knots; 5.7 m/s)
Visibility: 6 or more miles (10+ km)
Ceiling: at least 12,000 feet AGL
Clouds: few clouds at 1100 feet AGL
scattered clouds at 2200 feet AGL
Weather: no significant weather observed at this time

Forecast for: VMMC (MACAO/MACAU , MO)
Text: TAF VMMC 131700Z 1318/1424 17010KT 9999 FEW012 SCT030
Forecast period: 1800 UTC 13 June 2021 to 0000 UTC 15 June 2021
Forecast type: FROM: standard forecast or significant change
Winds: from the S (170 degrees) at 12 MPH (10 knots; 5.1 m/s)
Visibility: 6 or more miles (10+ km)
Ceiling: at least 12,000 feet AGL
Clouds: few clouds at 1200 feet AGL
scattered clouds at 3000 feet AGL
Weather: no significant weather forecast for this period
Text: TEMPO 1318/1403 4000 SHRA FEW010CB SCT015
Forecast period: 1800 UTC 13 June 2021 to 0300 UTC 14 June 2021
Forecast type: TEMPORARY: The following changes expected for less than half the time period
Visibility: 2.49 miles (4.01 km)
Ceiling: at least 12,000 feet AGL
Clouds: few clouds at 1000 feet AGL
scattered clouds at 1500 feet AGL
Weather: SHRA  (rain showers)